createdAt,value
2022-11-29T00:00:03.237Z,14.26
2022-11-29T00:15:01.464Z,14.27
2022-11-29T00:30:02.173Z,14.18
2022-11-29T00:45:01.806Z,14.26
2022-11-29T01:00:02.406Z,14.26
2022-11-29T01:15:02.027Z,14.39
2022-11-29T01:30:01.700Z,14.16
2022-11-29T01:45:02.304Z,13.94
2022-11-29T02:00:01.890Z,14.08
2022-11-29T02:15:01.508Z,14.11
2022-11-29T02:30:02.177Z,14.36
2022-11-29T02:45:01.802Z,14.24
2022-11-29T03:00:01.486Z,14.19
2022-11-29T03:15:02.132Z,14.38
2022-11-29T03:30:01.761Z,14.74
2022-11-29T03:45:01.395Z,14.78
2022-11-29T04:00:02.015Z,14.74
2022-11-29T04:15:01.662Z,14.72
2022-11-29T04:30:01.332Z,14.69
2022-11-29T04:45:01.981Z,14.41
2022-11-29T05:00:01.611Z,14.31
2022-11-29T05:15:02.264Z,14.5
2022-11-29T05:30:01.896Z,14.43
2022-11-29T05:45:01.556Z,13.93
2022-11-29T06:00:02.147Z,14.25
2022-11-29T06:15:01.791Z,14.46
2022-11-29T06:30:01.504Z,14.7
2022-11-29T06:45:02.138Z,15.57
2022-11-29T07:00:01.771Z,15.32
2022-11-29T07:15:01.400Z,14.99
2022-11-29T07:30:02.015Z,15.27
2022-11-29T07:45:01.612Z,15.1
2022-11-29T08:00:01.229Z,15.5
2022-11-29T08:15:02.145Z,15.42
2022-11-29T08:30:01.815Z,15.82
2022-11-29T08:45:01.424Z,15.77
2022-11-29T09:00:02.035Z,15.55
2022-11-29T09:15:01.650Z,15.43
2022-11-29T09:30:02.301Z,15.55
2022-11-29T09:45:01.933Z,15.83
2022-11-29T10:00:01.553Z,16.14
2022-11-29T10:15:02.141Z,16.09
2022-11-29T10:30:01.747Z,16.16
2022-11-29T10:45:01.404Z,16.13
2022-11-29T11:00:01.973Z,16.46
2022-11-29T11:15:01.594Z,16.31
2022-11-29T11:30:02.233Z,15.98
2022-11-29T11:45:02.291Z,16.26
2022-11-29T12:00:06.759Z,16.35
2022-11-29T12:15:01.925Z,16.44
2022-11-29T12:30:01.598Z,16.14
2022-11-29T12:45:02.214Z,15.84
2022-11-29T13:00:01.875Z,15.46
2022-11-29T13:15:01.790Z,15.45
2022-11-29T13:30:01.631Z,15.14
2022-11-29T13:45:01.302Z,15.42
2022-11-29T14:00:01.937Z,15.03
2022-11-29T14:15:01.567Z,14.66
2022-11-29T14:30:01.236Z,14.57
2022-11-29T14:45:01.902Z,14.25
2022-11-29T15:00:01.523Z,14.12
2022-11-29T15:15:01.163Z,13.9
2022-11-29T15:30:01.955Z,13.7
2022-11-29T15:45:01.637Z,13.5
2022-11-29T16:00:01.269Z,13.42
2022-11-29T16:15:02.203Z,13.57
2022-11-29T16:30:01.916Z,13.56
2022-11-29T16:45:01.544Z,13.89
2022-11-29T17:00:02.170Z,13.94
2022-11-29T17:15:01.806Z,13.88
2022-11-29T17:30:01.502Z,13.97
2022-11-29T17:45:02.150Z,13.92
2022-11-29T18:00:01.777Z,14.14
2022-11-29T18:15:01.416Z,14.35
2022-11-29T18:30:02.050Z,14.53
2022-11-29T18:45:01.684Z,14.72
2022-11-29T19:00:01.310Z,14.83
2022-11-29T19:15:01.943Z,14.93
2022-11-29T19:30:01.610Z,14.24
2022-11-29T19:45:16.341Z,14.14
2022-11-29T20:00:01.917Z,13.94
2022-11-29T20:15:01.895Z,13.67
2022-11-29T20:30:01.613Z,13.16
2022-11-29T20:45:02.250Z,13.02
2022-11-29T21:00:01.906Z,12.96
2022-11-29T21:15:01.556Z,12.9
2022-11-29T21:30:02.179Z,12.65
2022-11-29T21:45:01.836Z,12.6
2022-11-29T22:00:02.453Z,12.52
2022-11-29T22:15:02.090Z,12.61
2022-11-29T22:30:01.737Z,12.63
2022-11-29T22:45:02.373Z,12.67
2022-11-29T23:00:02.006Z,12.45
2022-11-29T23:15:01.620Z,12.34
2022-11-29T23:30:02.307Z,12.26
2022-11-29T23:45:01.954Z,12.29
